createdAt,value
2023-05-20T00:00:39.377Z,1.52
2023-05-20T00:03:05.939Z,1.70
2023-05-20T00:05:32.338Z,1.75
2023-05-20T00:07:59.576Z,1.70
2023-05-20T00:10:25.981Z,1.48
2023-05-20T00:12:52.535Z,1.90
2023-05-20T00:15:18.950Z,1.70
2023-05-20T00:17:45.374Z,1.63
2023-05-20T00:20:12.019Z,1.77
2023-05-20T00:22:38.374Z,2.20
2023-05-20T00:25:05.070Z,1.58
2023-05-20T00:27:31.469Z,2.28
2023-05-20T00:29:57.939Z,1.90
2023-05-20T00:32:24.783Z,2.22
2023-05-20T00:34:58.345Z,2.17
2023-05-20T00:37:24.911Z,2.20
2023-05-20T00:39:51.304Z,2.20
2023-05-20T00:42:24.299Z,1.85
2023-05-20T00:44:50.924Z,2.45
2023-05-20T00:47:21.525Z,1.95
2023-05-20T00:49:50.514Z,1.27
2023-05-20T00:52:18.357Z,2.10
2023-05-20T00:54:45.020Z,2.03
2023-05-20T00:57:11.728Z,2.33
2023-05-20T00:59:38.511Z,2.78
2023-05-20T01:02:05.154Z,1.55
2023-05-20T01:04:32.102Z,2.10
2023-05-20T01:07:00.572Z,2.83
2023-05-20T01:09:27.134Z,2.47
2023-05-20T01:11:56.771Z,2.55
2023-05-20T01:14:24.503Z,2.58
2023-05-20T01:16:52.340Z,1.88
2023-05-20T01:19:35.398Z,2.85
2023-05-20T01:22:07.040Z,1.90
2023-05-20T01:24:33.734Z,2.58
2023-05-20T01:27:00.152Z,1.85
2023-05-20T01:29:26.593Z,2.55
2023-05-20T01:31:53.688Z,2.22
2023-05-20T01:34:20.669Z,2.50
2023-05-20T01:36:47.231Z,1.60
2023-05-20T01:39:14.186Z,1.90
2023-05-20T01:41:41.208Z,2.35
2023-05-20T01:44:07.758Z,1.95
2023-05-20T01:46:34.639Z,1.95
2023-05-20T01:49:01.116Z,2.60
2023-05-20T01:51:27.916Z,2.55
2023-05-20T01:53:54.327Z,2.20
2023-05-20T01:56:22.086Z,2.47
2023-05-20T01:58:48.427Z,2.47
2023-05-20T02:01:14.888Z,2.70
2023-05-20T02:03:41.279Z,2.17
2023-05-20T02:06:07.772Z,2.42
2023-05-20T02:08:34.292Z,2.15
2023-05-20T02:11:00.789Z,2.55
2023-05-20T02:13:27.221Z,2.60
2023-05-20T02:15:53.582Z,3.58
2023-05-20T02:18:20.062Z,2.20
2023-05-20T02:20:46.727Z,2.60
2023-05-20T02:23:13.101Z,2.38
2023-05-20T02:25:40.426Z,2.72
2023-05-20T02:28:10.664Z,2.67
2023-05-20T02:30:38.033Z,2.03
2023-05-20T02:33:04.550Z,2.05
2023-05-20T02:35:31.163Z,3.08
2023-05-20T02:37:57.632Z,2.08
2023-05-20T02:40:24.068Z,1.63
2023-05-20T02:42:50.584Z,2.28
2023-05-20T02:45:16.982Z,2.80
2023-05-20T02:47:43.468Z,2.75
2023-05-20T02:50:10.100Z,2.50
2023-05-20T02:52:36.504Z,2.33
2023-05-20T02:55:02.975Z,2.05
2023-05-20T02:57:29.387Z,2.58
2023-05-20T02:59:56.831Z,2.58
2023-05-20T03:02:23.677Z,2.22
2023-05-20T03:04:50.683Z,2.40
2023-05-20T03:07:19.696Z,2.67
2023-05-20T03:09:46.319Z,2.22
2023-05-20T03:12:12.691Z,2.30
2023-05-20T03:14:39.063Z,2.90
2023-05-20T03:17:05.532Z,3.10
2023-05-20T03:19:31.921Z,2.70
2023-05-20T03:21:58.409Z,3.63
2023-05-20T03:24:24.844Z,3.30
2023-05-20T03:26:51.222Z,2.30
2023-05-20T03:29:18.094Z,2.90
2023-05-20T03:31:44.931Z,2.85
2023-05-20T03:34:11.372Z,2.72
2023-05-20T03:36:37.809Z,2.38
2023-05-20T03:39:04.597Z,2.38
2023-05-20T03:41:30.995Z,3.17
2023-05-20T03:43:57.333Z,3.00
2023-05-20T03:46:23.783Z,2.78
2023-05-20T03:48:50.337Z,3.15
2023-05-20T03:51:16.708Z,2.90
2023-05-20T03:53:43.095Z,2.85
2023-05-20T03:56:09.464Z,2.22
2023-05-20T03:58:38.572Z,2.88
2023-05-20T04:01:05.119Z,3.03
2023-05-20T04:03:31.985Z,2.92
2023-05-20T04:05:58.520Z,2.47
2023-05-20T04:08:26.089Z,2.97
2023-05-20T04:10:55.752Z,3.10
2023-05-20T04:13:22.284Z,3.88
2023-05-20T04:15:48.626Z,2.90
2023-05-20T04:18:15.193Z,3.30
2023-05-20T04:20:41.600Z,3.13
2023-05-20T04:23:07.965Z,2.92
2023-05-20T04:25:36.096Z,3.33
2023-05-20T04:28:03.108Z,3.25
2023-05-20T04:30:30.154Z,3.17
2023-05-20T04:32:56.603Z,3.53
2023-05-20T04:35:25.937Z,3.95
2023-05-20T04:37:54.036Z,2.42
2023-05-20T04:40:21.171Z,3.03
2023-05-20T04:42:47.570Z,3.13
2023-05-20T04:45:14.034Z,2.53
2023-05-20T04:47:41.830Z,2.60
2023-05-20T04:50:12.013Z,2.92
2023-05-20T04:52:39.148Z,2.95
2023-05-20T04:55:06.734Z,2.72
2023-05-20T04:57:34.506Z,2.15
2023-05-20T05:00:01.061Z,3.08
2023-05-20T05:02:27.559Z,3.15
2023-05-20T05:04:54.018Z,2.80
2023-05-20T05:07:20.870Z,2.63
2023-05-20T05:09:47.295Z,2.65
2023-05-20T05:12:13.647Z,3.67
2023-05-20T05:14:40.033Z,2.88
2023-05-20T05:17:06.512Z,2.35
2023-05-20T05:19:32.864Z,3.20
2023-05-20T05:21:59.291Z,2.50
2023-05-20T05:24:25.850Z,3.65
2023-05-20T05:26:55.592Z,3.03
2023-05-20T05:29:22.042Z,3.47
2023-05-20T05:31:48.448Z,3.40
2023-05-20T05:34:14.840Z,3.33
2023-05-20T05:36:41.259Z,3.25
2023-05-20T05:39:08.084Z,3.42
2023-05-20T05:41:34.475Z,3.67
2023-05-20T05:44:00.861Z,3.33
2023-05-20T05:46:27.310Z,3.72
2023-05-20T05:48:53.865Z,3.25
2023-05-20T05:51:20.233Z,3.55
2023-05-20T05:53:46.671Z,3.60
2023-05-20T05:56:13.059Z,2.78
2023-05-20T05:58:39.474Z,3.63
2023-05-20T06:01:06.194Z,3.50
2023-05-20T06:03:32.692Z,2.45
2023-05-20T06:05:59.308Z,3.42
2023-05-20T06:08:26.528Z,3.53
2023-05-20T06:10:52.954Z,3.20
2023-05-20T06:13:20.197Z,3.03
2023-05-20T06:15:46.579Z,3.15
2023-05-20T06:18:13.240Z,3.17
2023-05-20T06:20:39.588Z,2.97
2023-05-20T06:23:05.936Z,4.10
2023-05-20T06:25:32.536Z,3.63
2023-05-20T06:27:59.238Z,3.25
2023-05-20T06:30:25.680Z,4.38
2023-05-20T06:32:52.203Z,3.55
2023-05-20T06:35:18.745Z,3.33
2023-05-20T06:37:45.175Z,3.38
2023-05-20T06:40:12.451Z,2.95
2023-05-20T06:42:38.852Z,3.97
2023-05-20T06:45:05.599Z,3.78
2023-05-20T06:47:32.059Z,3.42
2023-05-20T06:49:58.484Z,2.60
2023-05-20T06:52:24.942Z,3.10
2023-05-20T06:54:51.298Z,3.20
2023-05-20T06:57:17.631Z,3.42
2023-05-20T06:59:44.022Z,2.92
2023-05-20T07:02:11.179Z,2.55
2023-05-20T07:04:37.603Z,2.70
2023-05-20T07:07:04.228Z,2.90
2023-05-20T07:09:30.596Z,2.70
2023-05-20T07:11:57.117Z,2.92
2023-05-20T07:14:23.590Z,2.33
2023-05-20T07:16:50.135Z,2.63
2023-05-20T07:19:16.659Z,2.20
2023-05-20T07:21:43.171Z,1.98
2023-05-20T07:24:09.562Z,2.17
2023-05-20T07:26:36.573Z,2.08
2023-05-20T07:29:03.910Z,2.58
2023-05-20T07:31:30.955Z,2.22
2023-05-20T07:33:57.631Z,2.63
2023-05-20T07:36:24.123Z,2.03
2023-05-20T07:39:01.809Z,2.08
2023-05-20T07:41:28.770Z,2.17
2023-05-20T07:43:55.186Z,2.03
2023-05-20T07:46:21.674Z,1.98
2023-05-20T07:48:48.077Z,2.03
2023-05-20T07:51:14.470Z,1.83
2023-05-20T07:53:40.927Z,2.13
2023-05-20T07:56:07.476Z,2.72
2023-05-20T07:58:33.836Z,2.08
2023-05-20T08:01:00.229Z,2.00
2023-05-20T08:03:26.992Z,2.20
2023-05-20T08:05:53.596Z,2.28
2023-05-20T08:08:19.949Z,2.45
2023-05-20T08:10:46.342Z,2.55
2023-05-20T08:13:12.760Z,2.10
2023-05-20T08:15:39.136Z,2.20
2023-05-20T08:18:05.995Z,1.95
2023-05-20T08:20:32.409Z,2.45
2023-05-20T08:22:58.939Z,2.08
2023-05-20T08:25:25.344Z,2.53
2023-05-20T08:27:51.754Z,2.13
2023-05-20T08:30:18.147Z,2.10
2023-05-20T08:32:44.642Z,2.45
2023-05-20T08:35:11.289Z,2.30
2023-05-20T08:37:37.685Z,1.75
2023-05-20T08:40:05.280Z,2.15
2023-05-20T08:42:31.940Z,1.80
2023-05-20T08:44:58.977Z,2.03
2023-05-20T08:47:26.337Z,1.95
2023-05-20T08:49:52.707Z,2.20
2023-05-20T08:52:21.163Z,2.17
2023-05-20T08:54:49.578Z,1.58
2023-05-20T08:57:16.271Z,1.30
2023-05-20T08:59:46.957Z,1.42
2023-05-20T09:02:13.955Z,1.70
2023-05-20T09:04:40.570Z,1.50
2023-05-20T09:07:07.030Z,1.67
2023-05-20T09:09:34.092Z,1.52
2023-05-20T09:12:01.453Z,1.67
2023-05-20T09:14:28.633Z,1.70
2023-05-20T09:16:55.059Z,1.65
2023-05-20T09:19:24.644Z,1.20
2023-05-20T09:21:52.933Z,1.52
2023-05-20T09:24:25.970Z,1.58
2023-05-20T09:26:52.772Z,1.63
2023-05-20T09:29:21.605Z,1.50
2023-05-20T09:31:48.896Z,1.35
2023-05-20T09:34:16.259Z,1.60
2023-05-20T09:36:43.351Z,1.65
2023-05-20T09:39:12.468Z,1.30
2023-05-20T09:41:39.655Z,1.70
2023-05-20T09:44:09.016Z,1.17
2023-05-20T09:46:36.373Z,1.38
2023-05-20T09:49:02.974Z,1.83
2023-05-20T09:51:29.831Z,1.90
2023-05-20T09:53:57.207Z,1.45
2023-05-20T09:56:23.918Z,1.60
2023-05-20T09:58:50.983Z,1.88
2023-05-20T10:01:17.829Z,1.70
2023-05-20T10:03:44.695Z,1.75
2023-05-20T10:06:14.558Z,1.60
2023-05-20T10:08:47.137Z,1.17
2023-05-20T10:11:16.750Z,1.15
2023-05-20T10:13:43.161Z,1.40
2023-05-20T10:16:35.956Z,1.23
2023-05-20T10:19:08.295Z,1.50
2023-05-20T10:21:35.036Z,1.50
2023-05-20T10:24:08.537Z,1.23
2023-05-20T10:26:38.423Z,1.60
2023-05-20T10:29:20.647Z,1.20
2023-05-20T10:31:51.532Z,1.35
2023-05-20T10:34:19.593Z,1.30
2023-05-20T10:36:48.229Z,1.13
2023-05-20T10:39:16.586Z,0.90
2023-05-20T10:41:43.192Z,1.42
2023-05-20T10:44:09.703Z,1.10
2023-05-20T10:46:51.460Z,1.40
2023-05-20T10:49:26.847Z,1.10
2023-05-20T10:51:54.240Z,1.52
2023-05-20T10:54:21.861Z,1.20
2023-05-20T10:56:52.477Z,1.15
2023-05-20T10:59:19.352Z,1.10
2023-05-20T11:01:46.423Z,1.40
2023-05-20T11:04:13.792Z,1.05
2023-05-20T11:06:49.650Z,1.05
2023-05-20T11:09:16.546Z,1.20
2023-05-20T11:11:43.174Z,0.98
2023-05-20T11:14:13.542Z,1.55
2023-05-20T11:16:40.208Z,1.20
2023-05-20T11:19:14.459Z,1.10
2023-05-20T11:21:44.657Z,1.05
2023-05-20T11:24:11.120Z,1.63
2023-05-20T11:26:37.645Z,1.42
2023-05-20T11:29:04.767Z,1.40
2023-05-20T11:31:32.022Z,1.50
2023-05-20T11:34:04.416Z,1.63
2023-05-20T11:36:31.034Z,1.17
2023-05-20T11:38:58.493Z,1.48
2023-05-20T11:41:25.626Z,1.60
2023-05-20T11:43:59.189Z,1.02
2023-05-20T11:46:26.158Z,1.05
2023-05-20T11:48:56.050Z,1.48
2023-05-20T11:51:29.307Z,1.60
2023-05-20T11:54:02.582Z,1.60
2023-05-20T11:56:30.449Z,1.25
2023-05-20T11:58:57.764Z,1.55
2023-05-20T12:01:24.621Z,1.70
2023-05-20T12:03:51.439Z,1.50
2023-05-20T12:06:19.185Z,1.83
2023-05-20T12:08:46.401Z,1.60
2023-05-20T12:11:13.029Z,1.25
2023-05-20T12:13:40.123Z,1.35
2023-05-20T12:16:06.835Z,1.48
2023-05-20T12:18:33.306Z,1.17
2023-05-20T12:21:00.212Z,1.45
2023-05-20T12:23:26.842Z,1.52
2023-05-20T12:25:53.251Z,1.48
2023-05-20T12:28:19.664Z,1.48
2023-05-20T12:30:46.054Z,2.13
2023-05-20T12:33:12.805Z,1.75
2023-05-20T12:35:41.069Z,1.45
2023-05-20T12:38:07.824Z,1.42
2023-05-20T12:40:34.902Z,1.35
2023-05-20T12:43:02.452Z,1.20
2023-05-20T12:45:29.341Z,1.48
2023-05-20T12:47:56.555Z,1.52
2023-05-20T12:50:23.997Z,1.40
2023-05-20T12:52:50.600Z,1.70
2023-05-20T12:55:16.985Z,1.45
2023-05-20T12:57:44.050Z,1.30
2023-05-20T13:00:11.172Z,1.65
2023-05-20T13:02:39.913Z,1.40
2023-05-20T13:05:06.796Z,1.50
2023-05-20T13:07:33.577Z,1.35
2023-05-20T13:10:00.090Z,1.55
2023-05-20T13:12:26.508Z,1.30
2023-05-20T13:14:53.309Z,1.27
2023-05-20T13:17:19.691Z,1.33
2023-05-20T13:19:46.263Z,1.23
2023-05-20T13:22:12.701Z,1.67
2023-05-20T13:24:39.172Z,1.23
2023-05-20T13:27:06.187Z,1.50
2023-05-20T13:29:32.604Z,1.58
2023-05-20T13:32:01.604Z,1.02
2023-05-20T13:34:28.539Z,1.75
2023-05-20T13:36:55.033Z,1.45
2023-05-20T13:39:21.436Z,1.63
2023-05-20T13:41:47.962Z,1.33
2023-05-20T13:44:14.480Z,1.27
2023-05-20T13:46:41.110Z,1.10
2023-05-20T13:49:07.618Z,2.00
2023-05-20T13:51:34.119Z,1.30
2023-05-20T13:54:00.905Z,1.33
2023-05-20T13:56:28.332Z,1.20
2023-05-20T13:58:54.767Z,1.23
2023-05-20T14:01:21.171Z,1.50
2023-05-20T14:03:47.823Z,1.20
2023-05-20T14:06:32.985Z,1.20
2023-05-20T14:08:59.559Z,1.40
2023-05-20T14:11:26.018Z,1.20
2023-05-20T14:13:52.366Z,1.00
2023-05-20T14:16:18.840Z,1.40
2023-05-20T14:18:45.397Z,1.05
2023-05-20T14:21:12.096Z,1.40
2023-05-20T14:23:40.920Z,1.40
2023-05-20T14:26:07.413Z,1.15
2023-05-20T14:28:33.870Z,1.17
2023-05-20T14:31:00.408Z,1.38
2023-05-20T14:33:26.820Z,1.27
2023-05-20T14:35:53.208Z,1.13
2023-05-20T14:38:21.405Z,1.35
2023-05-20T14:40:47.853Z,1.25
2023-05-20T14:43:14.209Z,1.10
2023-05-20T14:45:40.626Z,1.90
2023-05-20T14:48:07.219Z,1.10
2023-05-20T14:50:33.857Z,1.00
2023-05-20T14:53:00.338Z,1.10
2023-05-20T14:55:26.779Z,1.10
2023-05-20T14:57:53.185Z,1.67
2023-05-20T15:00:19.589Z,1.17
2023-05-20T15:02:46.104Z,1.80
2023-05-20T15:05:12.683Z,2.08
2023-05-20T15:07:39.245Z,1.10
2023-05-20T15:10:05.851Z,1.05
2023-05-20T15:12:32.298Z,0.77
2023-05-20T15:14:58.717Z,1.80
2023-05-20T15:17:25.136Z,1.40
2023-05-20T15:19:51.540Z,1.10
2023-05-20T15:22:18.000Z,0.98
2023-05-20T15:24:44.460Z,1.33
2023-05-20T15:27:10.834Z,1.05
2023-05-20T15:29:38.713Z,1.20
2023-05-20T15:32:06.260Z,1.10
2023-05-20T15:34:32.689Z,1.20
2023-05-20T15:36:59.103Z,1.27
2023-05-20T15:39:26.147Z,1.27
2023-05-20T15:41:52.864Z,1.33
2023-05-20T15:44:19.314Z,0.93
2023-05-20T15:46:46.452Z,1.10
2023-05-20T15:49:12.929Z,1.00
2023-05-20T15:51:39.920Z,1.33
2023-05-20T15:54:07.709Z,1.33
2023-05-20T15:56:34.101Z,1.13
2023-05-20T15:59:00.546Z,1.40
2023-05-20T16:01:28.475Z,1.40
2023-05-20T16:03:57.821Z,1.08
2023-05-20T16:06:24.682Z,1.30
2023-05-20T16:08:51.465Z,1.08
2023-05-20T16:11:17.924Z,1.17
2023-05-20T16:13:44.305Z,1.30
2023-05-20T16:16:10.793Z,1.45
2023-05-20T16:18:37.185Z,1.20
2023-05-20T16:21:07.252Z,1.35
2023-05-20T16:23:34.282Z,1.10
2023-05-20T16:26:01.020Z,1.20
2023-05-20T16:28:27.449Z,1.73
2023-05-20T16:30:53.796Z,1.75
2023-05-20T16:33:20.243Z,1.95
2023-05-20T16:35:46.743Z,2.33
2023-05-20T16:38:13.129Z,1.88
2023-05-20T16:40:39.692Z,2.10
2023-05-20T16:43:06.207Z,1.85
2023-05-20T16:45:32.752Z,2.05
2023-05-20T16:47:59.180Z,1.40
2023-05-20T16:50:25.582Z,1.50
2023-05-20T16:52:52.012Z,2.17
2023-05-20T16:55:18.437Z,1.90
2023-05-20T16:57:44.877Z,2.08
2023-05-20T17:00:11.650Z,2.50
2023-05-20T17:02:38.183Z,2.35
2023-05-20T17:05:04.869Z,1.88
2023-05-20T17:07:31.433Z,1.95
2023-05-20T17:09:57.885Z,2.30
2023-05-20T17:12:24.391Z,1.38
2023-05-20T17:14:50.834Z,2.35
2023-05-20T17:17:17.243Z,2.35
2023-05-20T17:19:43.763Z,2.15
2023-05-20T17:22:10.212Z,2.10
2023-05-20T17:24:36.628Z,1.80
2023-05-20T17:27:03.771Z,2.33
2023-05-20T17:29:30.212Z,2.40
2023-05-20T17:31:56.661Z,1.83
2023-05-20T17:34:23.185Z,2.08
2023-05-20T17:36:49.594Z,2.60
2023-05-20T17:39:16.949Z,2.00
2023-05-20T17:41:44.118Z,2.20
2023-05-20T17:44:10.477Z,2.17
2023-05-20T17:46:36.999Z,2.15
2023-05-20T17:49:03.454Z,2.22
2023-05-20T17:51:29.877Z,2.22
2023-05-20T17:53:56.830Z,1.77
2023-05-20T17:56:23.367Z,2.40
2023-05-20T17:58:49.709Z,2.47
2023-05-20T18:01:16.413Z,1.77
2023-05-20T18:03:43.093Z,2.17
2023-05-20T18:06:09.678Z,2.22
2023-05-20T18:08:36.187Z,2.25
2023-05-20T18:11:02.693Z,2.33
2023-05-20T18:13:29.142Z,2.20
2023-05-20T18:15:55.881Z,1.50
2023-05-20T18:18:22.306Z,2.03
2023-05-20T18:20:48.711Z,1.63
2023-05-20T18:23:15.105Z,2.20
2023-05-20T18:25:42.897Z,1.92
2023-05-20T18:28:09.787Z,1.73
2023-05-20T18:30:36.618Z,2.33
2023-05-20T18:33:03.383Z,1.80
2023-05-20T18:35:29.890Z,2.42
2023-05-20T18:37:56.387Z,2.00
2023-05-20T18:40:22.830Z,1.92
2023-05-20T18:42:49.192Z,1.65
2023-05-20T18:45:15.652Z,2.22
2023-05-20T18:47:42.181Z,2.03
2023-05-20T18:50:08.818Z,2.53
2023-05-20T18:52:35.429Z,1.60
2023-05-20T18:55:02.024Z,2.10
2023-05-20T18:57:28.527Z,2.53
2023-05-20T18:59:54.992Z,2.33
2023-05-20T19:02:21.509Z,2.17
2023-05-20T19:04:47.940Z,2.17
2023-05-20T19:07:14.347Z,1.77
2023-05-20T19:09:40.936Z,1.75
2023-05-20T19:12:07.483Z,2.20
2023-05-20T19:14:33.882Z,1.80
2023-05-20T19:17:01.207Z,2.45
2023-05-20T19:19:27.739Z,1.88
2023-05-20T19:21:54.182Z,2.40
2023-05-20T19:24:20.688Z,2.20
2023-05-20T19:26:47.107Z,2.00
2023-05-20T19:29:15.272Z,2.28
2023-05-20T19:31:43.141Z,2.40
2023-05-20T19:34:09.994Z,2.03
2023-05-20T19:36:38.085Z,2.38
2023-05-20T19:39:04.611Z,1.83
2023-05-20T19:41:31.394Z,1.75
2023-05-20T19:43:57.728Z,2.20
2023-05-20T19:46:24.251Z,1.60
2023-05-20T19:48:50.706Z,2.10
2023-05-20T19:51:17.142Z,2.10
2023-05-20T19:53:43.534Z,2.33
2023-05-20T19:56:09.980Z,2.13
2023-05-20T19:58:36.344Z,2.20
2023-05-20T20:01:04.468Z,2.15
2023-05-20T20:03:31.123Z,2.20
2023-05-20T20:05:57.607Z,1.30
2023-05-20T20:08:23.989Z,2.08
2023-05-20T20:10:50.414Z,1.92
2023-05-20T20:13:16.890Z,2.03
2023-05-20T20:15:43.458Z,2.58
2023-05-20T20:18:09.967Z,2.25
2023-05-20T20:20:40.679Z,2.35
2023-05-20T20:23:07.934Z,1.85
2023-05-20T20:25:38.824Z,1.65
2023-05-20T20:28:06.284Z,1.77
2023-05-20T20:30:32.725Z,1.98
2023-05-20T20:32:59.185Z,2.00
2023-05-20T20:35:25.887Z,2.17
2023-05-20T20:37:55.542Z,2.22
2023-05-20T20:40:22.468Z,2.03
2023-05-20T20:42:48.997Z,2.22
2023-05-20T20:45:15.695Z,1.60
2023-05-20T20:47:43.792Z,2.58
2023-05-20T20:50:11.655Z,1.95
2023-05-20T20:52:42.954Z,2.17
2023-05-20T20:55:12.648Z,1.98
2023-05-20T20:57:39.277Z,1.95
2023-05-20T21:00:26.262Z,1.83
2023-05-20T21:02:52.747Z,2.00
2023-05-20T21:05:19.242Z,2.20
2023-05-20T21:07:52.533Z,2.38
2023-05-20T21:10:19.271Z,2.08
2023-05-20T21:12:45.879Z,1.80
2023-05-20T21:15:12.850Z,2.22
2023-05-20T21:17:39.339Z,1.90
2023-05-20T21:20:06.896Z,1.92
2023-05-20T21:22:33.315Z,2.00
2023-05-20T21:24:59.752Z,1.90
2023-05-20T21:27:26.166Z,1.58
2023-05-20T21:29:52.796Z,1.80
2023-05-20T21:32:19.165Z,1.88
2023-05-20T21:34:45.797Z,2.58
2023-05-20T21:37:12.191Z,2.50
2023-05-20T21:39:38.892Z,1.35
2023-05-20T21:42:06.514Z,1.80
2023-05-20T21:44:32.937Z,1.70
2023-05-20T21:46:59.492Z,2.13
2023-05-20T21:49:25.922Z,1.80
2023-05-20T21:51:52.327Z,1.70
2023-05-20T21:54:18.701Z,1.88
2023-05-20T21:56:46.144Z,2.20
2023-05-20T21:59:12.843Z,1.73
2023-05-20T22:01:39.270Z,1.52
2023-05-20T22:04:06.981Z,1.65
2023-05-20T22:06:35.123Z,1.45
2023-05-20T22:09:01.829Z,2.35
2023-05-20T22:11:28.742Z,1.95
2023-05-20T22:13:55.158Z,1.80
2023-05-20T22:16:21.580Z,1.60
2023-05-20T22:18:49.609Z,2.20
2023-05-20T22:21:16.270Z,2.25
2023-05-20T22:23:42.610Z,1.88
2023-05-20T22:26:09.855Z,2.15
2023-05-20T22:28:36.245Z,1.90
2023-05-20T22:31:03.425Z,1.90
2023-05-20T22:33:29.847Z,1.48
2023-05-20T22:35:58.185Z,2.05
2023-05-20T22:38:24.706Z,2.35
2023-05-20T22:40:51.153Z,2.03
2023-05-20T22:43:17.510Z,1.50
2023-05-20T22:45:43.988Z,2.75
2023-05-20T22:48:10.503Z,2.65
2023-05-20T22:50:36.876Z,2.78
2023-05-20T22:53:03.301Z,1.83
2023-05-20T22:55:29.758Z,2.53
2023-05-20T22:57:56.191Z,2.55
2023-05-20T23:00:23.335Z,1.75
2023-05-20T23:02:52.254Z,1.52
2023-05-20T23:05:18.867Z,2.22
2023-05-20T23:07:45.534Z,2.50
2023-05-20T23:10:12.062Z,2.90
2023-05-20T23:12:38.557Z,1.90
2023-05-20T23:15:05.178Z,1.90
2023-05-20T23:17:31.648Z,1.95
2023-05-20T23:19:58.028Z,2.42
2023-05-20T23:22:24.396Z,1.92
2023-05-20T23:24:50.845Z,1.98
2023-05-20T23:27:17.292Z,1.20
2023-05-20T23:29:44.252Z,3.30
2023-05-20T23:32:10.767Z,1.67
2023-05-20T23:34:37.162Z,1.92
2023-05-20T23:37:03.594Z,2.47
2023-05-20T23:39:30.018Z,1.80
2023-05-20T23:41:56.399Z,2.55
2023-05-20T23:44:22.840Z,2.53
2023-05-20T23:46:49.636Z,2.80
2023-05-20T23:49:18.457Z,2.33
2023-05-20T23:51:44.922Z,2.65
2023-05-20T23:54:16.356Z,2.20
2023-05-20T23:56:42.832Z,2.03
2023-05-20T23:59:09.276Z,2.80
